createdAt,value
2018-06-24T00:00:50.503Z,0.00
2018-06-24T00:01:50.079Z,0.00
2018-06-24T00:02:49.864Z,0.00
2018-06-24T00:04:10.469Z,0.00
2018-06-24T00:05:10.826Z,0.00
2018-06-24T00:06:11.644Z,0.00
2018-06-24T00:07:10.940Z,0.00
2018-06-24T00:08:32.647Z,0.00
2018-06-24T00:09:33.118Z,0.00
2018-06-24T00:10:33.368Z,0.00
2018-06-24T00:11:33.879Z,0.00
2018-06-24T00:12:33.533Z,0.00
2018-06-24T00:13:33.108Z,0.00
2018-06-24T00:14:33.579Z,0.00
2018-06-24T00:15:32.985Z,0.00
2018-06-24T00:16:33.485Z,0.00
2018-06-24T00:17:33.213Z,0.00
2018-06-24T00:18:32.801Z,0.00
2018-06-24T00:19:54.399Z,0.00
2018-06-24T00:20:55.097Z,0.00
2018-06-24T00:21:54.516Z,0.00
2018-06-24T00:23:37.357Z,0.00
2018-06-24T00:24:37.820Z,0.00
2018-06-24T00:25:37.145Z,0.00
2018-06-24T00:26:37.547Z,0.00
2018-06-24T00:27:38.136Z,0.00
2018-06-24T00:28:37.593Z,0.00
2018-06-24T00:29:59.389Z,0.00
2018-06-24T00:30:59.784Z,0.00
2018-06-24T00:31:59.189Z,0.00
2018-06-24T00:32:59.580Z,0.00
2018-06-24T00:34:20.900Z,0.00
2018-06-24T00:35:24.533Z,0.00
2018-06-24T00:36:21.800Z,0.00
2018-06-24T00:37:42.400Z,0.00
2018-06-24T00:39:04.189Z,0.00
2018-06-24T00:40:04.632Z,0.00
2018-06-24T00:41:25.247Z,0.00
2018-06-24T00:42:25.962Z,0.00
2018-06-24T00:43:25.675Z,0.00
2018-06-24T00:44:26.278Z,0.00
2018-06-24T00:45:25.889Z,0.00
2018-06-24T00:46:25.559Z,0.00
2018-06-24T00:47:26.109Z,0.00
2018-06-24T00:48:25.483Z,0.00
2018-06-24T00:49:25.765Z,0.00
2018-06-24T00:50:25.456Z,0.00
2018-06-24T00:51:47.349Z,0.00
2018-06-24T00:52:47.959Z,0.00
2018-06-24T00:53:47.392Z,0.00
2018-06-24T00:54:47.885Z,0.00
2018-06-24T00:55:47.246Z,0.00
2018-06-24T00:56:47.634Z,0.00
2018-06-24T00:57:48.159Z,0.00
2018-06-24T00:59:54.778Z,0.00
2018-06-24T01:00:55.182Z,0.00
2018-06-24T01:02:18.898Z,0.00
2018-06-24T01:03:19.232Z,0.00
2018-06-24T01:04:19.667Z,0.00
2018-06-24T01:05:19.003Z,0.00
2018-06-24T01:06:19.346Z,0.00
2018-06-24T01:07:18.707Z,0.00
2018-06-24T01:08:18.871Z,0.00
2018-06-24T01:09:19.178Z,0.00
2018-06-24T01:10:19.660Z,0.00
2018-06-24T01:11:19.193Z,0.00
2018-06-24T01:12:19.552Z,0.00
2018-06-24T01:13:18.926Z,0.00
2018-06-24T01:14:19.483Z,0.00
2018-06-24T01:15:19.280Z,0.00
2018-06-24T01:16:19.978Z,0.00
2018-06-24T01:17:19.602Z,0.00
2018-06-24T01:18:18.785Z,0.00
2018-06-24T01:19:19.123Z,0.00
2018-06-24T01:20:19.895Z,0.00
2018-06-24T01:21:19.319Z,0.00
2018-06-24T01:22:40.965Z,0.00
2018-06-24T01:23:41.458Z,0.00
2018-06-24T01:24:40.947Z,0.00
2018-06-24T01:25:41.183Z,0.00
2018-06-24T01:26:41.864Z,0.00
2018-06-24T01:27:41.459Z,0.00
2018-06-24T01:28:41.094Z,0.00
2018-06-24T01:29:41.569Z,0.00
2018-06-24T01:30:40.801Z,0.00
2018-06-24T01:32:23.894Z,0.00
2018-06-24T01:33:24.521Z,0.00
2018-06-24T01:34:24.711Z,0.00
2018-06-24T01:35:24.251Z,0.00
2018-06-24T01:36:24.672Z,0.00
2018-06-24T01:37:45.057Z,0.00
2018-06-24T01:38:45.498Z,0.00
2018-06-24T01:39:46.155Z,0.00
2018-06-24T01:40:45.554Z,0.00
2018-06-24T01:41:45.859Z,0.00
2018-06-24T01:42:45.140Z,0.00
2018-06-24T01:43:45.803Z,0.00
2018-06-24T01:44:45.476Z,0.00
2018-06-24T01:45:45.827Z,0.00
2018-06-24T01:46:45.255Z,0.00
2018-06-24T01:47:45.537Z,0.00
2018-06-24T01:48:46.096Z,0.00
2018-06-24T01:49:45.596Z,0.00
2018-06-24T01:50:46.097Z,0.00
2018-06-24T01:52:06.774Z,0.00
2018-06-24T01:53:07.295Z,0.00
2018-06-24T01:54:07.924Z,0.00
2018-06-24T01:55:07.447Z,0.00
2018-06-24T01:56:06.937Z,0.00
2018-06-24T01:57:07.340Z,0.00
2018-06-24T01:58:07.097Z,0.00
2018-06-24T01:59:28.728Z,0.00
2018-06-24T02:00:29.222Z,0.00
2018-06-24T02:01:29.808Z,0.00
2018-06-24T02:02:30.435Z,0.00
2018-06-24T02:03:50.232Z,0.00
2018-06-24T02:04:50.924Z,0.00
2018-06-24T02:06:11.396Z,0.00
2018-06-24T02:07:11.888Z,0.00
2018-06-24T02:08:12.348Z,1.00
2018-06-24T02:09:11.659Z,1.00
2018-06-24T02:10:11.987Z,1.00
2018-06-24T02:11:32.778Z,1.00
2018-06-24T02:12:33.332Z,1.00
2018-06-24T02:13:32.793Z,0.00
2018-06-24T02:14:33.172Z,1.00
2018-06-24T02:15:33.672Z,1.00
2018-06-24T02:16:33.301Z,1.00
2018-06-24T02:17:32.827Z,2.00
2018-06-24T02:18:33.340Z,1.00
2018-06-24T02:19:32.796Z,2.00
2018-06-24T02:20:33.412Z,2.00
2018-06-24T02:21:32.632Z,2.00
2018-06-24T02:22:33.574Z,2.00
2018-06-24T02:23:33.127Z,2.00
2018-06-24T02:24:55.108Z,3.00
2018-06-24T02:25:55.641Z,3.00
2018-06-24T02:26:55.021Z,4.00
2018-06-24T02:27:55.613Z,4.00
2018-06-24T02:28:55.110Z,5.00
2018-06-24T02:29:55.509Z,6.00
2018-06-24T02:30:55.821Z,7.00
2018-06-24T02:31:55.217Z,7.00
2018-06-24T02:32:55.988Z,8.00
2018-06-24T02:33:55.503Z,8.00
2018-06-24T02:34:55.095Z,10.00
2018-06-24T02:35:55.651Z,11.00
2018-06-24T02:37:16.264Z,12.00
2018-06-24T02:38:16.690Z,13.00
2018-06-24T02:39:28.113Z,15.00
2018-06-24T02:40:16.737Z,17.00
2018-06-24T02:41:37.275Z,19.00
2018-06-24T02:42:37.892Z,21.00
2018-06-24T02:43:58.774Z,23.00
2018-06-24T02:45:20.180Z,28.00
2018-06-24T02:47:03.651Z,33.00
2018-06-24T02:48:04.030Z,36.00
2018-06-24T02:49:04.367Z,40.00
2018-06-24T02:50:03.980Z,42.00
2018-06-24T02:51:04.383Z,44.00
2018-06-24T02:52:03.833Z,47.00
2018-06-24T02:53:04.487Z,51.00
2018-06-24T02:54:25.378Z,57.00
2018-06-24T02:55:25.846Z,62.00
2018-06-24T02:56:26.271Z,66.00
2018-06-24T02:57:25.953Z,71.00
2018-06-24T02:58:25.589Z,75.00
2018-06-24T02:59:26.043Z,81.00
2018-06-24T03:00:46.595Z,90.00
2018-06-24T03:01:46.884Z,99.00
2018-06-24T03:02:47.371Z,109.00
2018-06-24T03:03:46.778Z,120.00
2018-06-24T03:04:47.129Z,132.00
2018-06-24T03:05:47.703Z,143.00
2018-06-24T03:06:47.400Z,156.00
2018-06-24T03:07:46.812Z,171.00
2018-06-24T03:08:47.170Z,185.00
2018-06-24T03:09:47.536Z,201.00
2018-06-24T03:10:54.876Z,214.00
2018-06-24T03:11:47.919Z,224.00
2018-06-24T03:12:47.322Z,235.00
2018-06-24T03:13:46.669Z,248.00
2018-06-24T03:14:46.912Z,265.00
2018-06-24T03:15:47.349Z,287.00
2018-06-24T03:16:46.774Z,311.00
2018-06-24T03:18:08.349Z,348.00
2018-06-24T03:19:08.921Z,378.00
2018-06-24T03:20:32.293Z,420.00
2018-06-24T03:21:33.005Z,452.00
2018-06-24T03:22:32.666Z,482.00
2018-06-24T03:23:33.089Z,517.00
2018-06-24T03:24:53.865Z,565.00
2018-06-24T03:25:54.281Z,609.00
2018-06-24T03:26:54.739Z,654.00
2018-06-24T03:27:54.117Z,694.00
2018-06-24T03:28:54.635Z,719.00
2018-06-24T03:29:54.325Z,725.00
2018-06-24T03:31:15.296Z,727.00
2018-06-24T03:32:15.931Z,742.00
2018-06-24T03:33:15.576Z,768.00
2018-06-24T03:34:16.198Z,798.00
2018-06-24T03:35:15.805Z,825.00
2018-06-24T03:36:15.287Z,862.00
2018-06-24T03:37:37.032Z,923.00
2018-06-24T03:38:37.291Z,977.00
2018-06-24T03:39:37.708Z,1039.00
2018-06-24T03:40:58.526Z,1137.00
2018-06-24T03:41:59.022Z,1218.00
2018-06-24T03:42:59.516Z,1291.00
2018-06-24T03:43:59.051Z,1353.00
2018-06-24T03:44:58.651Z,1424.00
2018-06-24T03:45:59.212Z,1500.00
2018-06-24T03:46:58.572Z,1584.00
2018-06-24T03:47:59.127Z,1668.00
2018-06-24T03:48:59.671Z,1745.00
2018-06-24T03:49:59.375Z,1812.00
2018-06-24T03:50:59.116Z,1874.00
2018-06-24T03:51:58.547Z,1927.00
2018-06-24T03:52:59.162Z,1974.00
2018-06-24T03:54:19.839Z,2029.00
2018-06-24T03:55:41.596Z,2100.00
2018-06-24T03:56:42.180Z,2170.00
2018-06-24T03:57:41.809Z,2248.00
2018-06-24T03:58:42.341Z,2319.00
2018-06-24T03:59:41.715Z,2363.00
2018-06-24T04:00:42.343Z,2388.00
2018-06-24T04:01:41.950Z,2417.00
2018-06-24T04:02:41.493Z,2439.00
2018-06-24T04:03:41.887Z,2485.00
2018-06-24T04:04:42.273Z,2541.00
2018-06-24T04:05:41.813Z,2608.00
2018-06-24T04:06:42.315Z,2675.00
2018-06-24T04:07:41.996Z,2732.00
2018-06-24T04:08:41.478Z,2796.00
2018-06-24T04:09:41.850Z,2869.00
2018-06-24T04:10:42.427Z,2966.00
2018-06-24T04:11:42.073Z,3060.00
2018-06-24T04:12:41.757Z,3142.00
2018-06-24T04:14:03.838Z,3153.00
2018-06-24T04:15:04.539Z,3079.00
2018-06-24T04:16:04.204Z,2970.00
2018-06-24T04:17:03.914Z,2855.00
2018-06-24T04:18:04.474Z,2760.00
2018-06-24T04:19:04.120Z,2701.00
2018-06-24T04:20:04.553Z,2654.00
2018-06-24T04:21:04.090Z,2617.00
2018-06-24T04:22:03.694Z,2582.00
2018-06-24T04:23:04.021Z,2562.00
2018-06-24T04:24:03.646Z,2560.00
2018-06-24T04:25:04.137Z,2575.00
2018-06-24T04:26:26.383Z,2625.00
2018-06-24T04:27:26.882Z,2661.00
2018-06-24T04:28:26.264Z,2692.00
2018-06-24T04:29:26.994Z,2691.00
2018-06-24T04:30:26.711Z,2674.00
2018-06-24T04:31:26.519Z,2665.00
2018-06-24T04:32:26.943Z,2681.00
2018-06-24T04:33:26.691Z,2722.00
2018-06-24T04:34:26.388Z,2802.00
2018-06-24T04:35:48.307Z,2972.00
2018-06-24T04:36:48.988Z,3103.00
2018-06-24T04:38:31.581Z,3289.00
2018-06-24T04:39:32.151Z,3399.00
2018-06-24T04:40:31.544Z,3554.00
2018-06-24T04:41:32.012Z,3777.00
2018-06-24T04:42:31.853Z,4084.00
2018-06-24T04:43:32.305Z,4460.00
2018-06-24T04:44:31.909Z,4837.00
2018-06-24T04:45:32.444Z,5123.00
2018-06-24T04:46:32.010Z,5342.00
2018-06-24T04:47:32.651Z,5519.00
2018-06-24T04:48:32.162Z,5701.00
2018-06-24T04:49:31.570Z,5882.00
2018-06-24T04:50:31.987Z,6076.00
2018-06-24T04:51:32.617Z,6251.00
2018-06-24T04:52:32.207Z,6360.00
2018-06-24T04:53:32.544Z,6427.00
2018-06-24T04:54:32.220Z,6508.00
2018-06-24T04:55:32.030Z,6566.00
2018-06-24T04:56:53.900Z,6640.00
2018-06-24T04:57:54.399Z,6640.00
2018-06-24T04:58:54.227Z,6636.00
2018-06-24T04:59:55.006Z,6719.00
2018-06-24T05:01:15.833Z,7053.00
2018-06-24T05:02:37.597Z,7516.00
2018-06-24T05:03:38.445Z,7828.00
2018-06-24T05:04:37.927Z,7820.00
2018-06-24T05:05:58.809Z,8005.00
2018-06-24T05:06:59.203Z,8718.00
2018-06-24T05:07:59.860Z,9163.00
2018-06-24T05:08:59.537Z,9480.00
2018-06-24T05:09:59.180Z,9715.00
2018-06-24T05:10:59.513Z,9887.00
2018-06-24T05:11:59.057Z,9956.00
2018-06-24T05:12:59.707Z,9887.00
2018-06-24T05:13:59.416Z,9931.00
2018-06-24T05:14:59.062Z,10360.00
2018-06-24T05:15:59.645Z,11040.00
2018-06-24T05:16:59.218Z,11671.00
2018-06-24T05:18:21.237Z,11891.00
2018-06-24T05:19:21.789Z,11825.00
2018-06-24T05:20:21.350Z,11702.00
2018-06-24T05:21:45.198Z,11495.00
2018-06-24T05:23:07.234Z,11232.00
2018-06-24T05:24:08.013Z,10848.00
2018-06-24T05:25:07.434Z,10343.00
2018-06-24T05:26:08.218Z,9713.00
2018-06-24T05:27:07.814Z,8992.00
2018-06-24T05:28:07.488Z,8275.00
2018-06-24T05:29:07.136Z,7650.00
2018-06-24T05:30:08.146Z,7193.00
2018-06-24T05:31:29.275Z,7167.00
2018-06-24T05:32:29.702Z,7137.00
2018-06-24T05:33:30.160Z,7161.00
2018-06-24T05:34:29.515Z,7490.00
2018-06-24T05:35:30.257Z,7866.00
2018-06-24T05:36:29.780Z,8216.00
2018-06-24T05:37:30.340Z,8597.00
2018-06-24T05:38:30.667Z,8970.00
2018-06-24T05:39:30.044Z,9333.00
2018-06-24T05:40:51.033Z,9788.00
2018-06-24T05:41:51.876Z,10034.00
2018-06-24T05:42:51.438Z,10202.00
2018-06-24T05:43:51.030Z,9984.00
2018-06-24T05:44:51.555Z,9676.00
2018-06-24T05:45:51.454Z,9131.00
2018-06-24T05:46:51.825Z,8361.00
2018-06-24T05:47:51.475Z,7617.00
2018-06-24T05:48:52.028Z,6991.00
2018-06-24T05:49:51.392Z,6545.00
2018-06-24T05:50:51.787Z,6262.00
2018-06-24T05:51:51.370Z,6237.00
2018-06-24T05:53:14.960Z,6396.00
2018-06-24T05:54:15.796Z,6464.00
2018-06-24T05:55:15.435Z,6409.00
2018-06-24T05:56:15.033Z,6382.00
2018-06-24T05:57:15.574Z,6429.00
2018-06-24T05:58:15.239Z,6642.00
2018-06-24T05:59:15.646Z,6856.00
2018-06-24T06:00:15.128Z,7047.00
2018-06-24T06:01:15.794Z,7139.00
2018-06-24T06:02:15.347Z,7334.00
2018-06-24T06:03:15.866Z,7646.00
2018-06-24T06:04:15.510Z,7890.00
2018-06-24T06:05:16.133Z,8020.00
2018-06-24T06:06:15.741Z,8068.00
2018-06-24T06:07:15.428Z,8044.00
2018-06-24T06:08:15.960Z,7851.00
2018-06-24T06:09:15.551Z,7745.00
2018-06-24T06:10:36.461Z,7820.00
2018-06-24T06:11:36.996Z,7805.00
2018-06-24T06:12:36.574Z,8059.00
2018-06-24T06:13:37.231Z,8505.00
2018-06-24T06:14:36.800Z,9357.00
2018-06-24T06:15:37.188Z,10506.00
2018-06-24T06:16:36.708Z,11593.00
2018-06-24T06:17:37.139Z,12531.00
2018-06-24T06:18:58.003Z,13658.00
2018-06-24T06:19:58.625Z,14218.00
2018-06-24T06:20:58.299Z,14354.00
2018-06-24T06:21:58.240Z,14536.00
2018-06-24T06:23:20.477Z,16784.00
2018-06-24T06:24:21.019Z,17960.00
2018-06-24T06:25:20.609Z,18184.00
2018-06-24T06:26:21.132Z,17800.00
2018-06-24T06:27:20.666Z,17256.00
2018-06-24T06:28:21.314Z,17392.00
2018-06-24T06:29:20.741Z,17392.00
2018-06-24T06:30:21.340Z,17816.00
2018-06-24T06:31:42.419Z,18024.00
2018-06-24T06:33:04.462Z,19200.00
2018-06-24T06:34:05.145Z,19816.00
2018-06-24T06:35:04.690Z,19336.00
2018-06-24T06:36:05.187Z,17696.00
2018-06-24T06:37:04.794Z,17088.00
2018-06-24T06:38:25.612Z,17576.00
2018-06-24T06:39:47.869Z,18288.00
2018-06-24T06:40:48.740Z,18592.00
2018-06-24T06:41:48.337Z,18440.00
2018-06-24T06:42:47.907Z,17592.00
2018-06-24T06:43:48.419Z,16760.00
2018-06-24T06:44:48.113Z,16050.00
2018-06-24T06:45:47.776Z,15498.00
2018-06-24T06:47:10.982Z,14953.00
2018-06-24T06:48:11.392Z,14574.00
2018-06-24T06:49:11.290Z,14144.00
2018-06-24T06:50:32.997Z,13592.00
2018-06-24T06:51:33.900Z,13334.00
2018-06-24T06:52:33.475Z,12794.00
2018-06-24T06:53:34.125Z,12868.00
2018-06-24T06:54:33.886Z,12584.00
2018-06-24T06:55:33.420Z,12320.00
2018-06-24T06:56:34.089Z,12964.00
2018-06-24T06:57:33.860Z,13889.00
2018-06-24T06:58:33.624Z,14778.00
2018-06-24T06:59:55.980Z,15619.00
2018-06-24T07:00:55.708Z,15889.00
2018-06-24T07:01:55.377Z,15891.00
2018-06-24T07:02:55.179Z,15733.00
2018-06-24T07:03:54.812Z,16129.00
2018-06-24T07:04:55.241Z,16984.00
2018-06-24T07:05:54.993Z,17416.00
2018-06-24T07:06:54.795Z,17912.00
2018-06-24T07:07:56.309Z,19040.00
2018-06-24T07:08:54.944Z,18992.00
2018-06-24T07:09:55.690Z,19096.00
2018-06-24T07:10:55.329Z,19712.00
2018-06-24T07:12:16.107Z,20744.00
2018-06-24T07:13:16.688Z,21304.00
2018-06-24T07:14:16.497Z,20664.00
2018-06-24T07:15:16.133Z,19760.00
2018-06-24T07:16:16.830Z,20808.00
2018-06-24T07:17:16.841Z,20344.00
2018-06-24T07:18:16.615Z,19296.00
2018-06-24T07:19:16.421Z,18864.00
2018-06-24T07:20:38.274Z,18408.00
2018-06-24T07:21:39.107Z,17928.00
2018-06-24T07:22:38.935Z,16944.00
2018-06-24T07:24:00.507Z,17576.00
2018-06-24T07:25:01.049Z,18304.00
2018-06-24T07:26:00.761Z,18200.00
2018-06-24T07:27:00.429Z,16080.00
2018-06-24T07:28:00.974Z,17976.00
2018-06-24T07:29:00.792Z,19320.00
2018-06-24T07:30:00.864Z,19552.00
2018-06-24T07:31:00.618Z,18032.00
2018-06-24T07:32:01.091Z,16083.00
2018-06-24T07:33:00.745Z,15259.00
2018-06-24T07:34:00.617Z,14891.00
2018-06-24T07:35:01.299Z,13855.00
2018-06-24T07:36:01.131Z,12876.00
2018-06-24T07:37:00.540Z,11426.00
2018-06-24T07:38:01.190Z,9770.00
2018-06-24T07:39:00.810Z,8541.00
2018-06-24T07:40:00.670Z,7431.00
2018-06-24T07:41:00.565Z,6289.00
2018-06-24T07:42:00.993Z,5233.00
2018-06-24T07:43:00.729Z,5998.00
2018-06-24T07:44:21.734Z,9032.00
2018-06-24T07:45:22.356Z,10133.00
2018-06-24T07:46:22.151Z,11113.00
2018-06-24T07:47:21.770Z,12948.00
2018-06-24T07:48:22.247Z,14503.00
2018-06-24T07:49:21.698Z,15278.00
2018-06-24T07:50:22.577Z,14713.00
2018-06-24T07:51:22.512Z,13746.00
2018-06-24T07:53:05.671Z,12772.00
2018-06-24T07:54:06.425Z,12792.00
2018-06-24T07:55:06.089Z,13334.00
2018-06-24T07:56:06.778Z,13172.00
2018-06-24T07:57:06.561Z,12843.00
2018-06-24T07:58:06.095Z,11819.00
2018-06-24T07:59:05.798Z,11220.00
2018-06-24T08:00:06.746Z,10635.00
2018-06-24T08:01:06.676Z,10082.00
2018-06-24T08:02:06.280Z,10636.00
2018-06-24T08:03:06.150Z,10980.00
2018-06-24T08:04:06.201Z,10543.00
2018-06-24T08:05:05.997Z,10536.00
2018-06-24T08:06:06.642Z,10504.00
2018-06-24T08:07:06.230Z,11337.00
2018-06-24T08:08:49.841Z,11588.00
2018-06-24T08:09:50.209Z,11607.00
2018-06-24T08:10:51.366Z,12366.00
2018-06-24T08:11:49.910Z,13380.00
2018-06-24T08:13:11.587Z,13570.00
2018-06-24T08:14:12.110Z,12815.00
2018-06-24T08:15:11.999Z,11774.00
2018-06-24T08:16:11.792Z,10845.00
2018-06-24T08:17:12.301Z,10568.00
2018-06-24T08:18:56.532Z,11512.00
2018-06-24T08:19:56.368Z,12049.00
2018-06-24T08:21:17.827Z,12168.00
2018-06-24T08:22:18.717Z,12582.00
2018-06-24T08:23:22.037Z,12366.00
2018-06-24T08:24:17.862Z,12543.00
2018-06-24T08:25:18.797Z,12802.00
2018-06-24T08:26:18.449Z,13749.00
2018-06-24T08:27:17.902Z,14428.00
2018-06-24T08:29:24.561Z,13146.00
2018-06-24T08:30:24.365Z,12677.00
2018-06-24T08:31:47.525Z,12900.00
2018-06-24T08:32:47.299Z,13338.00
2018-06-24T08:33:47.827Z,14263.00
2018-06-24T08:35:10.782Z,14177.00
2018-06-24T08:36:11.500Z,12964.00
2018-06-24T08:37:11.133Z,12751.00
2018-06-24T08:38:11.926Z,12844.00
2018-06-24T08:39:11.583Z,11982.00
2018-06-24T08:40:34.792Z,12202.00
2018-06-24T08:41:35.404Z,13093.00
2018-06-24T08:42:35.315Z,14529.00
2018-06-24T08:43:35.237Z,15825.00
2018-06-24T08:44:35.037Z,17448.00
2018-06-24T08:45:35.104Z,18288.00
2018-06-24T08:46:34.900Z,19384.00
2018-06-24T08:47:35.795Z,20752.00
2018-06-24T08:49:19.616Z,22528.00
2018-06-24T08:50:20.170Z,22496.00
2018-06-24T08:51:20.106Z,21784.00
2018-06-24T08:52:20.040Z,20968.00
2018-06-24T08:53:20.851Z,20944.00
2018-06-24T08:54:20.489Z,21136.00
2018-06-24T08:55:20.404Z,21448.00
2018-06-24T08:56:20.591Z,23032.00
2018-06-24T08:57:41.670Z,22424.00
2018-06-24T08:59:47.704Z,22664.00
2018-06-24T09:00:48.300Z,22232.00
2018-06-24T09:02:09.955Z,19608.00
2018-06-24T09:03:33.665Z,18536.00
2018-06-24T09:04:55.611Z,20200.00
2018-06-24T09:05:56.671Z,20800.00
2018-06-24T09:06:56.585Z,20120.00
2018-06-24T09:07:56.451Z,19232.00
2018-06-24T09:08:55.977Z,19400.00
2018-06-24T09:09:56.853Z,21024.00
2018-06-24T09:10:56.687Z,21832.00
2018-06-24T09:11:56.254Z,21016.00
2018-06-24T09:13:17.819Z,17760.00
2018-06-24T09:14:18.799Z,13166.00
2018-06-24T09:15:18.780Z,9435.00
2018-06-24T09:16:18.276Z,7395.00
2018-06-24T09:17:41.112Z,5762.00
2018-06-24T09:18:41.846Z,5518.00
2018-06-24T09:19:42.077Z,6727.00
2018-06-24T09:20:42.034Z,10455.00
2018-06-24T09:21:42.012Z,13356.00
2018-06-24T09:22:42.339Z,16709.00
2018-06-24T09:23:41.022Z,18856.00
2018-06-24T09:24:41.854Z,20656.00
2018-06-24T09:25:41.417Z,22664.00
2018-06-24T09:26:41.263Z,23928.00
2018-06-24T09:27:42.246Z,23280.00
2018-06-24T09:28:42.465Z,21824.00
2018-06-24T09:29:41.390Z,20304.00
2018-06-24T09:31:03.071Z,18488.00
2018-06-24T09:32:03.388Z,17952.00
2018-06-24T09:33:03.228Z,18704.00
2018-06-24T09:34:03.244Z,19040.00
2018-06-24T09:35:03.277Z,18776.00
2018-06-24T09:36:25.408Z,18880.00
2018-06-24T09:37:52.117Z,18936.00
2018-06-24T09:38:48.466Z,19728.00
2018-06-24T09:39:48.662Z,18320.00
2018-06-24T09:40:48.483Z,18240.00
2018-06-24T09:42:10.799Z,19832.00
2018-06-24T09:43:31.186Z,21176.00
2018-06-24T09:44:32.704Z,22272.00
2018-06-24T09:45:31.787Z,22200.00
2018-06-24T09:46:31.641Z,22472.00
2018-06-24T09:47:31.708Z,22856.00
2018-06-24T09:48:54.122Z,22512.00
2018-06-24T09:50:17.083Z,23720.00
2018-06-24T09:51:41.353Z,26952.00
2018-06-24T09:53:03.489Z,31320.00
2018-06-24T09:54:04.002Z,31336.00
2018-06-24T09:55:04.466Z,31960.00
2018-06-24T09:56:04.557Z,31968.00
2018-06-24T09:57:04.493Z,31720.00
2018-06-24T09:58:05.062Z,31768.00
2018-06-24T09:59:03.695Z,31504.00
2018-06-24T10:00:03.484Z,29616.00
2018-06-24T10:01:03.469Z,28248.00
2018-06-24T10:02:24.843Z,27584.00
2018-06-24T10:03:26.642Z,28272.00
2018-06-24T10:04:47.564Z,30496.00
2018-06-24T10:05:48.519Z,31104.00
2018-06-24T10:06:47.505Z,32440.00
2018-06-24T10:07:48.482Z,30688.00
2018-06-24T10:08:47.244Z,30704.00
2018-06-24T10:09:48.240Z,29752.00
2018-06-24T10:10:48.385Z,32912.00
2018-06-24T10:11:47.810Z,39016.00
2018-06-24T10:12:48.271Z,36696.00
2018-06-24T10:13:47.757Z,29912.00
2018-06-24T10:14:47.335Z,30880.00
2018-06-24T10:15:48.277Z,30512.00
2018-06-24T10:16:48.624Z,27376.00
2018-06-24T10:18:08.743Z,23240.00
2018-06-24T10:19:31.711Z,28376.00
2018-06-24T10:20:31.385Z,28616.00
2018-06-24T10:21:32.019Z,24784.00
2018-06-24T10:22:54.004Z,19136.00
2018-06-24T10:23:53.553Z,19184.00
2018-06-24T10:24:53.279Z,18352.00
2018-06-24T10:25:53.612Z,19088.00
2018-06-24T10:26:53.361Z,18312.00
2018-06-24T10:28:14.591Z,21912.00
2018-06-24T10:29:37.015Z,18120.00
2018-06-24T10:30:36.791Z,16544.00
2018-06-24T10:31:38.209Z,18552.00
2018-06-24T10:32:41.781Z,21504.00
2018-06-24T10:33:41.140Z,23088.00
2018-06-24T10:34:41.806Z,19640.00
2018-06-24T10:35:38.452Z,17104.00
2018-06-24T10:36:39.682Z,15569.00
2018-06-24T10:37:39.734Z,14127.00
2018-06-24T10:38:58.934Z,23256.00
2018-06-24T10:40:20.818Z,35360.00
2018-06-24T10:41:22.614Z,35896.00
2018-06-24T10:42:21.371Z,33520.00
2018-06-24T10:43:20.883Z,36832.00
2018-06-24T10:44:45.576Z,37376.00
2018-06-24T10:45:46.191Z,35064.00
2018-06-24T10:46:46.691Z,30464.00
2018-06-24T10:47:45.255Z,26760.00
2018-06-24T10:49:59.579Z,19616.00
2018-06-24T10:50:58.896Z,17760.00
2018-06-24T10:51:58.461Z,17416.00
2018-06-24T10:53:22.657Z,17560.00
2018-06-24T10:54:23.264Z,17280.00
2018-06-24T10:55:23.959Z,16421.00
2018-06-24T10:56:23.111Z,14841.00
2018-06-24T10:57:22.791Z,13649.00
2018-06-24T10:58:22.866Z,13819.00
2018-06-24T10:59:22.849Z,15206.00
2018-06-24T11:00:22.908Z,16098.00
2018-06-24T11:02:01.811Z,16068.00
2018-06-24T11:03:01.602Z,16698.00
2018-06-24T11:04:02.557Z,17704.00
2018-06-24T11:05:01.300Z,19816.00
2018-06-24T11:06:02.469Z,21728.00
2018-06-24T11:07:09.019Z,23696.00
2018-06-24T11:08:30.706Z,20984.00
2018-06-24T11:09:51.042Z,14396.00
2018-06-24T11:11:28.873Z,21224.00
2018-06-24T11:12:38.238Z,20832.00
2018-06-24T11:13:39.449Z,30112.00
2018-06-24T11:14:38.385Z,40296.00
2018-06-24T11:15:38.050Z,40856.00
2018-06-24T11:16:40.067Z,40296.00
2018-06-24T11:18:04.129Z,39264.00
2018-06-24T11:19:06.385Z,41144.00
2018-06-24T11:20:03.307Z,40984.00
2018-06-24T11:21:23.766Z,38072.00
2018-06-24T11:22:30.324Z,42408.00
2018-06-24T11:24:01.574Z,40960.00
2018-06-24T11:25:00.843Z,32776.00
2018-06-24T11:26:01.493Z,29408.00
2018-06-24T11:27:01.079Z,28168.00
2018-06-24T11:27:59.766Z,24016.00
2018-06-24T11:29:00.367Z,23816.00
2018-06-24T11:30:24.496Z,20872.00
2018-06-24T11:31:25.032Z,16896.00
2018-06-24T11:32:25.131Z,15760.00
2018-06-24T11:33:23.820Z,16336.00
2018-06-24T11:34:24.701Z,11882.00
2018-06-24T11:35:47.774Z,8562.00
2018-06-24T11:36:48.726Z,8192.00
2018-06-24T11:37:47.408Z,10131.00
2018-06-24T11:38:45.971Z,11665.00
2018-06-24T11:39:48.584Z,11961.00
2018-06-24T11:40:46.417Z,16515.00
2018-06-24T11:41:46.965Z,24392.00
2018-06-24T11:42:46.899Z,28360.00
2018-06-24T11:44:10.683Z,27208.00
2018-06-24T11:45:12.376Z,24464.00
2018-06-24T11:46:12.484Z,21088.00
2018-06-24T11:47:35.537Z,19688.00
2018-06-24T11:48:36.645Z,18888.00
2018-06-24T11:49:36.248Z,18096.00
2018-06-24T11:50:36.412Z,18392.00
2018-06-24T11:51:59.325Z,18888.00
2018-06-24T11:52:59.240Z,19640.00
2018-06-24T11:53:59.590Z,15885.00
2018-06-24T11:54:59.329Z,15232.00
2018-06-24T11:56:00.333Z,14938.00
2018-06-24T11:56:59.925Z,14127.00
2018-06-24T11:58:00.923Z,15055.00
2018-06-24T11:59:00.748Z,13545.00
2018-06-24T11:59:59.334Z,12179.00
2018-06-24T12:00:59.361Z,13453.00
2018-06-24T12:02:22.710Z,18776.00
2018-06-24T12:03:25.609Z,25048.00
2018-06-24T12:04:25.041Z,36432.00
2018-06-24T12:05:23.452Z,46928.00
2018-06-24T12:06:23.199Z,56752.00
2018-06-24T12:07:23.242Z,65535.00
2018-06-24T12:08:23.998Z,65535.00
2018-06-24T12:09:23.528Z,53640.00
2018-06-24T12:10:23.164Z,50224.00
2018-06-24T12:11:23.926Z,46752.00
2018-06-24T12:12:23.293Z,38064.00
2018-06-24T12:13:24.849Z,32024.00
2018-06-24T12:14:24.021Z,20728.00
2018-06-24T12:15:24.169Z,14294.00
2018-06-24T12:16:23.618Z,13277.00
2018-06-24T12:17:27.668Z,13125.00
2018-06-24T12:18:26.316Z,15301.00
2018-06-24T12:19:23.964Z,13022.00
2018-06-24T12:20:46.180Z,12403.00
2018-06-24T12:21:46.875Z,13257.00
2018-06-24T12:22:46.054Z,12645.00
2018-06-24T12:23:46.123Z,12524.00
2018-06-24T12:24:46.024Z,13856.00
2018-06-24T12:25:47.521Z,18128.00
2018-06-24T12:26:47.359Z,23208.00
2018-06-24T12:27:46.311Z,28064.00
2018-06-24T12:28:58.500Z,30000.00
2018-06-24T12:30:15.144Z,26544.00
2018-06-24T12:30:48.399Z,18512.00
2018-06-24T12:32:07.912Z,9324.00
2018-06-24T12:33:29.561Z,7764.00
2018-06-24T12:34:30.061Z,11404.00
2018-06-24T12:37:02.080Z,16912.00
2018-06-24T12:38:04.965Z,26600.00
2018-06-24T12:39:01.426Z,32328.00
2018-06-24T12:40:01.775Z,32920.00
2018-06-24T12:41:02.061Z,31536.00
2018-06-24T12:42:28.901Z,28168.00
2018-06-24T12:43:29.235Z,28424.00
2018-06-24T12:44:32.160Z,23288.00
2018-06-24T12:45:33.931Z,18888.00
2018-06-24T12:47:06.943Z,16023.00
2018-06-24T12:47:56.300Z,17152.00
2018-06-24T12:48:56.380Z,15127.00
2018-06-24T12:49:56.577Z,16248.00
2018-06-24T12:50:55.246Z,17712.00
2018-06-24T12:51:56.229Z,20016.00
2018-06-24T12:52:59.211Z,17696.00
2018-06-24T12:54:18.635Z,13641.00
2018-06-24T12:55:19.441Z,13171.00
2018-06-24T12:56:39.170Z,13195.00
2018-06-24T12:57:39.958Z,14613.00
2018-06-24T12:58:40.421Z,17848.00
2018-06-24T12:59:42.164Z,20688.00
2018-06-24T13:00:41.429Z,20928.00
2018-06-24T13:02:27.655Z,16928.00
2018-06-24T13:03:27.065Z,17024.00
2018-06-24T13:04:27.516Z,18296.00
2018-06-24T13:05:26.655Z,18064.00